• Join FlightAware (Why Join?)
  • Login
  • US Flag 
Trick or treat! (Boo!!) 
07:21AM EDT


 

Airport Tracker/Info


-or-


 

Live Flight TrackerFlight Track Log ✈ JZA575 ✈ 28-Apr-2012 ✈ CYXE - CYVR

Flight Track Log - Related Links

Times and Time Zones

All times are in EDT time to prevent confusion due to time zone crossing. See the JZA575 flight status page for this flight to view local times or setup timezone preferences in your user account.

Time Position Orientation Groundspeed Altitude Reporting Facility
EDT Latitude Longitude Course Direction KTS MPH feet Rate Location/Type
08:25AM 52.1500 -106.6667 270° West 10 12 1,700  Level Edmonton Center
08:26AM 52.1500 -106.7500 288° West 170 196 2,700 1,560 Climbing Edmonton Center
08:27AM 52.1667 -106.8333 280° West 220 253 4,900 1,980 Climbing Edmonton Center
08:28AM 52.1833 -106.9833 255° West 270 311 6,700 2,160 Climbing Edmonton Center
08:29AM 52.1667 -107.0833 259° West 290 334 9,300 2,640 Climbing Edmonton Center
08:30AM 52.1500 -107.2167 248° West 290 334 12,000 2,280 Climbing Edmonton Center
08:31AM 52.1167 -107.3500 270° West 310 357 13,900 1,800 Climbing Edmonton Center
08:32AM 52.1167 -107.5167 260° West 320 368 15,700 1,800 Climbing Edmonton Center
08:33AM 52.1000 -107.6667 260° West 330 380 17,500 1,560 Climbing Edmonton Center
08:34AM 52.0833 -107.8167 252° West 340 391 18,900 1,380 Climbing Edmonton Center
08:35AM 52.0500 -107.9833 270° West 340 391 20,400 1,320 Climbing Edmonton Center
08:36AM 52.0500 -108.1167 262° West 350 403 21,600 1,200 Climbing Edmonton Center
08:37AM 52.0333 -108.3167 259° West 360 414 22,800 1,080 Climbing Edmonton Center
08:38AM 52.0167 -108.4500 252° West 360 414 23,800 960 Climbing Edmonton Center
08:39AM 51.9833 -108.6167 262° West 370 426 24,800 900 Climbing Edmonton Center
08:40AM 51.9667 -108.8000 270° West 370 426 25,700 900 Climbing Edmonton Center
08:41AM 51.9667 -108.9667 252° West 380 437 26,600 900 Climbing Edmonton Center
08:42AM 51.9333 -109.1333 262° West 380 437 27,600 780 Climbing Edmonton Center
08:43AM 51.9167 -109.3167 252° West 380 437 28,200 660 Climbing Edmonton Center
08:44AM 51.8833 -109.4833 262° West 390 449 29,000 660 Climbing Edmonton Center
08:45AM 51.8667 -109.6667 252° West 390 449 29,600 600 Climbing Edmonton Center
08:46AM 51.8333 -109.8333 261° West 390 449 30,300 600 Climbing Edmonton Center
08:47AM 51.8167 -110.0000 254° West 390 449 30,900 600 Climbing Edmonton Center
08:48AM 51.7833 -110.1833 270° West 400 460 31,500 420 Climbing Edmonton Center
08:49AM 51.7833 -110.3667 255° West 400 460 31,800 360 Climbing Edmonton Center
08:50AM 51.7500 -110.5667 260° West 400 460 32,300 420 Climbing Edmonton Center
08:51AM 51.7333 -110.7167 255° West 410 472 32,700 420 Climbing Edmonton Center
08:52AM 51.7000 -110.9167 262° West 410 472 33,200 300 Climbing Edmonton Center
08:53AM 51.6833 -111.1000 254° West 410 472 33,400 300 Climbing Edmonton Center
08:54AM 51.6500 -111.2833 252° West 410 472 33,900 300 Climbing Edmonton Center
08:55AM 51.6167 -111.4500 262° West 410 472 34,000  Climbing Edmonton Center
08:56AM 51.6000 -111.6333 254° West 420 483 34,000  Level Edmonton Center
08:57AM 51.5667 -111.8167 256° West 420 483 34,000  Level Edmonton Center
08:58AM 51.5333 -112.0333 262° West 430 495 34,000  Level Edmonton Center
08:59AM 51.5167 -112.2167 254° West 430 495 34,000  Level Edmonton Center
09:00AM 51.4833 -112.4000 262° West 440 506 34,000  Level Edmonton Center
09:01AM 51.4667 -112.5833 254° West 430 495 34,000  Level Edmonton Center
09:02AM 51.4333 -112.7667 255° West 440 506 34,000  Level Edmonton Center
09:03AM 51.4000 -112.9667 262° West 440 506 34,000  Level Edmonton Center
09:04AM 51.3833 -113.1500 255° West 440 506 34,000  Level Edmonton Center
09:05AM 51.3500 -113.3500 254° West 440 506 34,000  Level Edmonton Center
09:06AM 51.3167 -113.5333 254° West 440 506 34,000  Level Edmonton Center
09:07AM 51.2833 -113.7167 254° West 430 495 34,000  Level Edmonton Center
09:08AM 51.2500 -113.9000 256° West 440 506 34,000  Level Edmonton Center
09:09AM 51.2167 -114.1167 254° West 430 495 34,000  Level Edmonton Center
09:10AM 51.1833 -114.3000 254° West 430 495 34,000  Level Edmonton Center
09:11AM 51.1500 -114.4833 254° West 430 495 34,000  Level Edmonton Center
09:12AM 51.1167 -114.6667 254° West 430 495 34,000  Level Edmonton Center
09:13AM 51.0833 -114.8500 254° West 430 495 34,000  Level Edmonton Center
09:14AM 51.0500 -115.0333 255° West 430 495 34,000  Level Edmonton Center
09:15AM 51.0167 -115.2333 254° West 430 495 34,000  Level Edmonton Center
09:16AM 50.9833 -115.4167 255° West 430 495 34,000  Level Edmonton Center
09:17AM 50.9667 -115.5167 262° West 430 495 34,000  Level Vancouver Center
09:18AM 50.9500 -115.7000 245° Southwest 430 495 34,000  Level Vancouver Center
09:19AM 50.9000 -115.8667 255° West 430 495 34,000  Level Vancouver Center
09:20AM 50.8667 -116.0667 254° West 430 495 34,000  Level Vancouver Center
09:21AM 50.8333 -116.2500 245° Southwest 430 495 34,000  Level Vancouver Center
09:22AM 50.7833 -116.4167 255° West 430 495 34,000  Level Vancouver Center
09:23AM 50.7500 -116.6167 254° West 430 495 34,000  Level Vancouver Center
09:24AM 50.7167 -116.8000 253° West 440 506 34,000  Level Vancouver Center
09:25AM 50.6833 -116.9667 254° West 440 506 34,000  Level Vancouver Center
09:26AM 50.6500 -117.1500 255° West 440 506 34,000  Level Vancouver Center
09:27AM 50.6167 -117.3500 245° Southwest 440 506 34,000  Level Vancouver Center
09:28AM 50.5667 -117.5167 254° West 440 506 34,000  Level Vancouver Center
09:29AM 50.5333 -117.7000 247° West 440 506 34,000  Level Vancouver Center
09:30AM 50.4833 -117.8833 252° West 440 506 34,000  Level Vancouver Center
09:35AM 50.3000 -118.7500 247° West 430 495 34,000  Level Vancouver Center
09:36AM 50.2500 -118.9333 261° West 420 483 34,000  Level Vancouver Center
09:37AM 50.2333 -119.1000 247° West 420 483 34,000  Level Vancouver Center
09:38AM 50.1833 -119.2833 247° West 420 483 34,000  Level Vancouver Center
09:39AM 50.1333 -119.4667 253° West 430 495 34,000  Level Vancouver Center
09:40AM 50.1000 -119.6333 247° West 430 495 34,000  Level Vancouver Center
09:41AM 50.0500 -119.8167 253° West 430 495 34,000  Level Vancouver Center
09:42AM 50.0167 -119.9833 247° West 430 495 34,000  Level Vancouver Center
09:43AM 49.9667 -120.1667 254° West 440 506 34,000  Level Vancouver Center
09:44AM 49.9333 -120.3500 251° West 440 506 34,000  Level Vancouver Center
09:45AM 49.9000 -120.5000 247° West 440 506 34,000  Level Vancouver Center
09:46AM 49.8500 -120.6833 249° West 440 506 34,000  Level Vancouver Center
09:47AM 49.8000 -120.8833 243° Southwest 430 495 34,000  Level Vancouver Center
09:48AM 49.7500 -121.0333 254° West 440 506 34,000  Level Vancouver Center
09:49AM 49.7167 -121.2167 254° West 430 495 34,000 -300 Level Vancouver Center
09:50AM 49.6833 -121.4000 243° Southwest 430 495 33,400 -1,800 Descending Vancouver Center
09:51AM 49.6333 -121.5500 247° West 440 506 30,500 -3,060 Descending Vancouver Center
09:52AM 49.5833 -121.7333 245° Southwest 440 506 27,400 -3,000 Descending Vancouver Center
09:53AM 49.5333 -121.9000 254° West 420 483 24,500 -3,000 Descending Vancouver Center
09:54AM 49.5000 -122.0833 237° Southwest 410 472 21,400 -2,580 Descending Vancouver Center
09:55AM 49.4500 -122.2000 233° Southwest 380 437 19,400 -1,860 Descending Vancouver Center
09:56AM 49.3833 -122.3333 243° Southwest 350 403 17,700 -1,620 Descending Vancouver Center
09:57AM 49.3500 -122.4333 237° Southwest 330 380 16,200 -1,800 Descending Vancouver Center
09:58AM 49.3000 -122.5500 246° West 310 357 14,200 -2,100 Descending Vancouver Center
09:59AM 49.2667 -122.6667 258° West 300 345 12,100 -1,740 Descending Vancouver Center
10:00AM 49.2500 -122.7833 246° West 280 322 10,700 -1,080 Descending Vancouver Center
10:01AM 49.2167 -122.9000 284° West 270 311 10,000 -360 Descending Vancouver Center
10:02AM 49.2333 -123.0000 282° West 270 311 10,000 -480 Level Vancouver Center
10:03AM 49.2500 -123.1167 284° West 260 299 9,100 -1,800 Descending Vancouver Center
10:04AM 49.2667 -123.2167 270° West 260 299 6,400 -1,980 Descending Vancouver Center
10:05AM 49.2667 -123.3333 284° West 260 299 5,200 -1,140 Descending Vancouver Center
10:06AM 49.2833 -123.4333 213° Southwest 240 276 4,200 -840 Descending Vancouver Center
10:07AM 49.2500 -123.4667 147° Southeast 200 230 3,600 -660 Descending Vancouver Center
10:08AM 49.2167 -123.4333 111° Southeast 190 219 2,900 -660 Descending Vancouver Center
10:09AM 49.2000 -123.3667 90° East 160 184 2,300 -780 Descending Vancouver Center
10:10AM 49.2000 -123.2833 117° Southeast 160 184 1,400 -840 Descending Vancouver Center
10:11AM 49.1833 -123.2333 117° Southeast 140 161 700 -720 Descending Vancouver Center